sensor_id;sensor_type;location;lat;lon;timestamp;temperature;humidity
66871;DHT22;53780;44.998;9.926;2023-06-05T00:01:34;18.56;81.11
66871;DHT22;53780;44.998;9.926;2023-06-05T00:04:39;18.56;81.38
66871;DHT22;53780;44.998;9.926;2023-06-05T00:07:44;18.52;81.49
66871;DHT22;53780;44.998;9.926;2023-06-05T00:10:48;18.52;81.72
66871;DHT22;53780;44.998;9.926;2023-06-05T00:13:51;18.52;81.80
66871;DHT22;53780;44.998;9.926;2023-06-05T00:16:55;18.55;81.96
66871;DHT22;53780;44.998;9.926;2023-06-05T00:20:00;18.50;81.94
66871;DHT22;53780;44.998;9.926;2023-06-05T00:23:04;18.45;82.34
66871;DHT22;53780;44.998;9.926;2023-06-05T00:26:08;18.49;82.59
66871;DHT22;53780;44.998;9.926;2023-06-05T00:29:11;18.49;82.76
66871;DHT22;53780;44.998;9.926;2023-06-05T00:32:16;18.49;82.67
66871;DHT22;53780;44.998;9.926;2023-06-05T00:35:20;18.49;82.75
66871;DHT22;53780;44.998;9.926;2023-06-05T00:38:24;18.52;82.71
66871;DHT22;53780;44.998;9.926;2023-06-05T00:41:28;18.53;82.72
66871;DHT22;53780;44.998;9.926;2023-06-05T00:44:31;18.48;82.64
66871;DHT22;53780;44.998;9.926;2023-06-05T00:47:37;18.49;82.71
66871;DHT22;53780;44.998;9.926;2023-06-05T00:50:42;18.50;82.69
66871;DHT22;53780;44.998;9.926;2023-06-05T00:53:47;18.52;82.56
66871;DHT22;53780;44.998;9.926;2023-06-05T00:56:50;18.50;82.44
66871;DHT22;53780;44.998;9.926;2023-06-05T00:59:56;18.46;82.70
66871;DHT22;53780;44.998;9.926;2023-06-05T01:02:59;18.48;82.88
66871;DHT22;53780;44.998;9.926;2023-06-05T01:06:03;18.53;82.80
66871;DHT22;53780;44.998;9.926;2023-06-05T01:09:07;18.55;82.93
66871;DHT22;53780;44.998;9.926;2023-06-05T01:12:43;18.57;82.77
66871;DHT22;53780;44.998;9.926;2023-06-05T01:15:50;18.57;82.75
66871;DHT22;53780;44.998;9.926;2023-06-05T01:19:00;18.55;82.78
66871;DHT22;53780;44.998;9.926;2023-06-05T01:22:06;18.55;82.99
66871;DHT22;53780;44.998;9.926;2023-06-05T01:25:10;18.50;83.25
66871;DHT22;53780;44.998;9.926;2023-06-05T01:28:29;18.49;83.46
66871;DHT22;53780;44.998;9.926;2023-06-05T01:31:34;18.50;83.58
66871;DHT22;53780;44.998;9.926;2023-06-05T01:34:43;18.48;83.52
66871;DHT22;53780;44.998;9.926;2023-06-05T01:37:49;18.48;83.81
66871;DHT22;53780;44.998;9.926;2023-06-05T01:40:54;18.46;83.73
66871;DHT22;53780;44.998;9.926;2023-06-05T01:43:59;18.48;83.99
66871;DHT22;53780;44.998;9.926;2023-06-05T01:47:05;18.46;83.78
66871;DHT22;53780;44.998;9.926;2023-06-05T01:50:10;18.46;83.90
66871;DHT22;53780;44.998;9.926;2023-06-05T01:53:16;18.43;83.95
66871;DHT22;53780;44.998;9.926;2023-06-05T01:56:21;18.43;83.70
66871;DHT22;53780;44.998;9.926;2023-06-05T01:59:27;18.39;83.98
66871;DHT22;53780;44.998;9.926;2023-06-05T02:02:31;18.42;84.28
66871;DHT22;53780;44.998;9.926;2023-06-05T02:05:35;18.45;84.26
66871;DHT22;53780;44.998;9.926;2023-06-05T02:08:38;18.43;84.39
66871;DHT22;53780;44.998;9.926;2023-06-05T02:11:44;18.43;84.37
66871;DHT22;53780;44.998;9.926;2023-06-05T02:14:50;18.45;84.24
66871;DHT22;53780;44.998;9.926;2023-06-05T02:17:55;18.46;84.02
66871;DHT22;53780;44.998;9.926;2023-06-05T02:21:01;18.46;83.93
66871;DHT22;53780;44.998;9.926;2023-06-05T02:24:05;18.46;83.88
66871;DHT22;53780;44.998;9.926;2023-06-05T02:27:10;18.45;84.04
66871;DHT22;53780;44.998;9.926;2023-06-05T02:30:14;18.45;84.12
66871;DHT22;53780;44.998;9.926;2023-06-05T02:33:18;18.40;84.26
66871;DHT22;53780;44.998;9.926;2023-06-05T02:36:24;18.42;84.38
66871;DHT22;53780;44.998;9.926;2023-06-05T02:39:29;18.43;84.47
66871;DHT22;53780;44.998;9.926;2023-06-05T02:42:36;18.43;84.79
66871;DHT22;53780;44.998;9.926;2023-06-05T02:45:40;18.42;84.64
66871;DHT22;53780;44.998;9.926;2023-06-05T02:48:46;18.32;84.88
66871;DHT22;53780;44.998;9.926;2023-06-05T02:51:50;18.25;85.14
66871;DHT22;53780;44.998;9.926;2023-06-05T02:54:55;18.26;85.61
66871;DHT22;53780;44.998;9.926;2023-06-05T02:57:59;18.36;85.77
66871;DHT22;53780;44.998;9.926;2023-06-05T03:01:11;18.36;86.00
66871;DHT22;53780;44.998;9.926;2023-06-05T03:04:20;18.42;85.91
66871;DHT22;53780;44.998;9.926;2023-06-05T03:07:27;18.42;85.72
66871;DHT22;53780;44.998;9.926;2023-06-05T03:10:30;18.38;85.40
66871;DHT22;53780;44.998;9.926;2023-06-05T03:13:35;18.33;85.55
66871;DHT22;53780;44.998;9.926;2023-06-05T03:16:39;18.38;85.45
66871;DHT22;53780;44.998;9.926;2023-06-05T03:19:48;18.39;85.27
66871;DHT22;53780;44.998;9.926;2023-06-05T03:22:54;18.45;85.17
66871;DHT22;53780;44.998;9.926;2023-06-05T03:26:00;18.46;84.97
66871;DHT22;53780;44.998;9.926;2023-06-05T03:29:04;18.46;84.77
66871;DHT22;53780;44.998;9.926;2023-06-05T03:32:09;18.46;84.86
66871;DHT22;53780;44.998;9.926;2023-06-05T03:35:14;18.50;84.88
66871;DHT22;53780;44.998;9.926;2023-06-05T03:38:18;18.46;84.63
66871;DHT22;53780;44.998;9.926;2023-06-05T03:41:23;18.36;84.82
66871;DHT22;53780;44.998;9.926;2023-06-05T03:44:28;18.29;85.30
66871;DHT22;53780;44.998;9.926;2023-06-05T03:47:32;18.29;85.45
66871;DHT22;53780;44.998;9.926;2023-06-05T03:50:38;18.32;85.10
66871;DHT22;53780;44.998;9.926;2023-06-05T03:53:45;18.32;85.38
66871;DHT22;53780;44.998;9.926;2023-06-05T03:56:49;18.32;85.55
66871;DHT22;53780;44.998;9.926;2023-06-05T03:59:54;18.29;85.61
66871;DHT22;53780;44.998;9.926;2023-06-05T04:02:58;18.26;85.72
66871;DHT22;53780;44.998;9.926;2023-06-05T04:06:04;18.32;85.69
66871;DHT22;53780;44.998;9.926;2023-06-05T04:09:09;18.28;85.71
66871;DHT22;53780;44.998;9.926;2023-06-05T04:12:18;18.30;85.84
66871;DHT22;53780;44.998;9.926;2023-06-05T04:15:24;18.29;85.77
66871;DHT22;53780;44.998;9.926;2023-06-05T04:18:28;18.26;85.72
66871;DHT22;53780;44.998;9.926;2023-06-05T04:21:33;18.24;86.14
66871;DHT22;53780;44.998;9.926;2023-06-05T04:24:38;18.26;86.04
66871;DHT22;53780;44.998;9.926;2023-06-05T04:27:46;18.29;85.97
66871;DHT22;53780;44.998;9.926;2023-06-05T04:30:50;18.29;86.19
66871;DHT22;53780;44.998;9.926;2023-06-05T04:33:56;18.30;86.20
66871;DHT22;53780;44.998;9.926;2023-06-05T04:37:01;18.38;86.25
66871;DHT22;53780;44.998;9.926;2023-06-05T04:40:06;18.35;86.16
66871;DHT22;53780;44.998;9.926;2023-06-05T04:43:14;18.35;86.20
66871;DHT22;53780;44.998;9.926;2023-06-05T04:46:18;18.28;86.28
66871;DHT22;53780;44.998;9.926;2023-06-05T04:49:22;18.29;86.39
66871;DHT22;53780;44.998;9.926;2023-06-05T04:52:26;18.32;86.18
66871;DHT22;53780;44.998;9.926;2023-06-05T04:55:33;18.26;85.85
66871;DHT22;53780;44.998;9.926;2023-06-05T04:58:37;18.21;85.47
66871;DHT22;53780;44.998;9.926;2023-06-05T05:01:43;18.24;85.90
66871;DHT22;53780;44.998;9.926;2023-06-05T05:04:47;18.28;85.94
66871;DHT22;53780;44.998;9.926;2023-06-05T05:07:51;18.30;85.26
66871;DHT22;53780;44.998;9.926;2023-06-05T05:10:55;18.33;85.24
66871;DHT22;53780;44.998;9.926;2023-06-05T05:14:00;18.38;85.32
66871;DHT22;53780;44.998;9.926;2023-06-05T05:17:04;18.39;84.88
66871;DHT22;53780;44.998;9.926;2023-06-05T05:20:09;18.40;85.01
66871;DHT22;53780;44.998;9.926;2023-06-05T05:23:15;18.40;85.04
66871;DHT22;53780;44.998;9.926;2023-06-05T05:26:19;18.48;84.55
66871;DHT22;53780;44.998;9.926;2023-06-05T05:29:25;18.53;83.78
66871;DHT22;53780;44.998;9.926;2023-06-05T05:32:31;18.56;83.71
66871;DHT22;53780;44.998;9.926;2023-06-05T05:35:35;18.60;84.01
66871;DHT22;53780;44.998;9.926;2023-06-05T05:38:39;18.61;84.10
66871;DHT22;53780;44.998;9.926;2023-06-05T05:41:43;18.64;84.67
66871;DHT22;53780;44.998;9.926;2023-06-05T05:44:46;18.68;84.55
66871;DHT22;53780;44.998;9.926;2023-06-05T05:47:50;18.74;84.83
66871;DHT22;53780;44.998;9.926;2023-06-05T05:50:54;18.76;84.69
66871;DHT22;53780;44.998;9.926;2023-06-05T05:53:58;18.74;84.49
66871;DHT22;53780;44.998;9.926;2023-06-05T05:57:02;18.78;84.51
66871;DHT22;53780;44.998;9.926;2023-06-05T06:00:07;18.84;84.60
66871;DHT22;53780;44.998;9.926;2023-06-05T06:03:16;18.90;84.46
66871;DHT22;53780;44.998;9.926;2023-06-05T06:06:21;18.88;83.52
66871;DHT22;53780;44.998;9.926;2023-06-05T06:09:25;19.00;83.16
66871;DHT22;53780;44.998;9.926;2023-06-05T06:12:30;18.95;83.31
66871;DHT22;53780;44.998;9.926;2023-06-05T06:15:33;18.97;82.46
66871;DHT22;53780;44.998;9.926;2023-06-05T06:18:37;19.04;82.60
66871;DHT22;53780;44.998;9.926;2023-06-05T06:21:41;19.10;82.88
66871;DHT22;53780;44.998;9.926;2023-06-05T06:24:46;19.10;82.94
66871;DHT22;53780;44.998;9.926;2023-06-05T06:27:50;19.11;82.89
66871;DHT22;53780;44.998;9.926;2023-06-05T06:30:56;19.12;82.72
66871;DHT22;53780;44.998;9.926;2023-06-05T06:34:00;19.16;82.52
66871;DHT22;53780;44.998;9.926;2023-06-05T06:37:05;19.16;82.72
66871;DHT22;53780;44.998;9.926;2023-06-05T06:40:09;19.18;82.57
66871;DHT22;53780;44.998;9.926;2023-06-05T06:43:13;19.22;82.62
66871;DHT22;53780;44.998;9.926;2023-06-05T06:46:22;19.19;83.48
66871;DHT22;53780;44.998;9.926;2023-06-05T06:49:25;19.18;83.11
66871;DHT22;53780;44.998;9.926;2023-06-05T06:52:30;19.22;83.76
66871;DHT22;53780;44.998;9.926;2023-06-05T06:55:34;19.26;82.45
66871;DHT22;53780;44.998;9.926;2023-06-05T06:58:38;19.26;82.69
66871;DHT22;53780;44.998;9.926;2023-06-05T07:01:43;19.26;82.88
66871;DHT22;53780;44.998;9.926;2023-06-05T07:04:49;19.32;83.53
66871;DHT22;53780;44.998;9.926;2023-06-05T07:07:52;19.35;82.72
66871;DHT22;53780;44.998;9.926;2023-06-05T07:10:56;19.36;82.30
66871;DHT22;53780;44.998;9.926;2023-06-05T07:14:00;19.36;82.46
66871;DHT22;53780;44.998;9.926;2023-06-05T07:17:04;19.43;83.20
66871;DHT22;53780;44.998;9.926;2023-06-05T07:20:08;19.39;82.60
66871;DHT22;53780;44.998;9.926;2023-06-05T07:23:14;19.38;82.57
66871;DHT22;53780;44.998;9.926;2023-06-05T07:26:19;19.42;82.22
66871;DHT22;53780;44.998;9.926;2023-06-05T07:29:23;19.43;82.11
66871;DHT22;53780;44.998;9.926;2023-06-05T07:32:27;19.39;82.40
66871;DHT22;53780;44.998;9.926;2023-06-05T07:35:31;19.42;82.44
66871;DHT22;53780;44.998;9.926;2023-06-05T07:38:35;19.41;82.25
66871;DHT22;53780;44.998;9.926;2023-06-05T07:41:39;19.42;82.16
66871;DHT22;53780;44.998;9.926;2023-06-05T07:44:46;19.55;82.01
66871;DHT22;53780;44.998;9.926;2023-06-05T07:47:49;19.58;81.33
66871;DHT22;53780;44.998;9.926;2023-06-05T07:50:53;19.66;81.24
66871;DHT22;53780;44.998;9.926;2023-06-05T07:53:57;19.65;81.36
66871;DHT22;53780;44.998;9.926;2023-06-05T07:57:01;19.77;80.99
66871;DHT22;53780;44.998;9.926;2023-06-05T08:00:06;19.77;81.10
66871;DHT22;53780;44.998;9.926;2023-06-05T08:03:17;19.79;81.16
66871;DHT22;53780;44.998;9.926;2023-06-05T08:06:24;19.81;81.04
66871;DHT22;53780;44.998;9.926;2023-06-05T08:09:28;19.86;81.60
66871;DHT22;53780;44.998;9.926;2023-06-05T08:12:32;19.89;81.66
66871;DHT22;53780;44.998;9.926;2023-06-05T08:15:36;19.90;81.29
66871;DHT22;53780;44.998;9.926;2023-06-05T08:18:40;19.98;81.61
66871;DHT22;53780;44.998;9.926;2023-06-05T08:21:43;20.10;80.42
66871;DHT22;53780;44.998;9.926;2023-06-05T08:24:47;20.06;81.51
66871;DHT22;53780;44.998;9.926;2023-06-05T08:27:53;20.08;80.97
66871;DHT22;53780;44.998;9.926;2023-06-05T08:30:57;20.15;81.54
66871;DHT22;53780;44.998;9.926;2023-06-05T08:34:02;20.29;80.10
66871;DHT22;53780;44.998;9.926;2023-06-05T08:37:06;20.36;80.14
66871;DHT22;53780;44.998;9.926;2023-06-05T08:40:10;20.34;79.83
66871;DHT22;53780;44.998;9.926;2023-06-05T08:43:15;20.42;79.24
66871;DHT22;53780;44.998;9.926;2023-06-05T08:46:19;20.49;79.94
66871;DHT22;53780;44.998;9.926;2023-06-05T08:49:26;20.57;78.44
66871;DHT22;53780;44.998;9.926;2023-06-05T08:52:34;20.63;78.80
66871;DHT22;53780;44.998;9.926;2023-06-05T08:55:39;20.66;78.61
66871;DHT22;53780;44.998;9.926;2023-06-05T08:58:44;20.79;77.16
66871;DHT22;53780;44.998;9.926;2023-06-05T09:01:50;20.87;76.47
66871;DHT22;53780;44.998;9.926;2023-06-05T09:04:54;20.99;76.95
66871;DHT22;53780;44.998;9.926;2023-06-05T09:08:01;21.07;77.25
66871;DHT22;53780;44.998;9.926;2023-06-05T09:11:28;21.14;77.05
66871;DHT22;53780;44.998;9.926;2023-06-05T09:14:33;21.12;75.27
66871;DHT22;53780;44.998;9.926;2023-06-05T09:17:37;21.12;76.39
66871;DHT22;53780;44.998;9.926;2023-06-05T09:20:43;21.17;76.70
66871;DHT22;53780;44.998;9.926;2023-06-05T09:23:48;21.12;75.93
66871;DHT22;53780;44.998;9.926;2023-06-05T09:27:01;21.15;76.63
66871;DHT22;53780;44.998;9.926;2023-06-05T09:30:05;21.12;75.81
66871;DHT22;53780;44.998;9.926;2023-06-05T09:33:10;21.10;75.89
66871;DHT22;53780;44.998;9.926;2023-06-05T09:36:14;21.07;76.70
66871;DHT22;53780;44.998;9.926;2023-06-05T09:39:21;20.99;78.43
66871;DHT22;53780;44.998;9.926;2023-06-05T09:42:32;20.63;79.13
66871;DHT22;53780;44.998;9.926;2023-06-05T09:45:43;20.45;79.88
66871;DHT22;53780;44.998;9.926;2023-06-05T09:48:52;20.35;80.99
66871;DHT22;53780;44.998;9.926;2023-06-05T09:52:01;20.35;81.39
66871;DHT22;53780;44.998;9.926;2023-06-05T09:55:05;20.32;81.52
66871;DHT22;53780;44.998;9.926;2023-06-05T09:58:12;20.38;82.61
66871;DHT22;53780;44.998;9.926;2023-06-05T10:01:24;20.44;80.79
66871;DHT22;53780;44.998;9.926;2023-06-05T10:04:29;20.53;79.97
66871;DHT22;53780;44.998;9.926;2023-06-05T10:07:35;20.71;80.07
66871;DHT22;53780;44.998;9.926;2023-06-05T10:10:41;20.89;80.46
66871;DHT22;53780;44.998;9.926;2023-06-05T10:13:47;21.08;81.86
66871;DHT22;53780;44.998;9.926;2023-06-05T10:16:51;21.11;78.08
66871;DHT22;53780;44.998;9.926;2023-06-05T10:19:56;21.18;79.88
66871;DHT22;53780;44.998;9.926;2023-06-05T10:23:01;21.23;77.53
66871;DHT22;53780;44.998;9.926;2023-06-05T10:26:13;21.24;78.26
66871;DHT22;53780;44.998;9.926;2023-06-05T10:33:41;21.41;76.56
66871;DHT22;53780;44.998;9.926;2023-06-05T10:40:11;21.63;73.78
66871;DHT22;53780;44.998;9.926;2023-06-05T10:46:34;21.15;78.56
66871;DHT22;53780;44.998;9.926;2023-06-05T10:49:38;21.28;79.03
66871;DHT22;53780;44.998;9.926;2023-06-05T10:52:43;21.47;78.14
66871;DHT22;53780;44.998;9.926;2023-06-05T10:55:46;21.41;77.50
66871;DHT22;53780;44.998;9.926;2023-06-05T10:59:23;21.27;77.99
66871;DHT22;53780;44.998;9.926;2023-06-05T11:02:27;21.27;77.59
66871;DHT22;53780;44.998;9.926;2023-06-05T11:05:31;21.37;78.15
66871;DHT22;53780;44.998;9.926;2023-06-05T11:08:35;21.51;77.11
66871;DHT22;53780;44.998;9.926;2023-06-05T11:12:00;21.58;77.49
66871;DHT22;53780;44.998;9.926;2023-06-05T11:15:06;21.72;78.37
66871;DHT22;53780;44.998;9.926;2023-06-05T11:22:02;22.29;74.76
66871;DHT22;53780;44.998;9.926;2023-06-05T11:28:40;22.11;75.02
66871;DHT22;53780;44.998;9.926;2023-06-05T11:31:44;22.17;74.62
66871;DHT22;53780;44.998;9.926;2023-06-05T11:34:49;22.20;75.11
66871;DHT22;53780;44.998;9.926;2023-06-05T11:38:12;22.21;73.65
66871;DHT22;53780;44.998;9.926;2023-06-05T11:41:16;22.06;71.19
66871;DHT22;53780;44.998;9.926;2023-06-05T11:44:32;21.90;73.01
66871;DHT22;53780;44.998;9.926;2023-06-05T11:47:36;21.86;75.04
66871;DHT22;53780;44.998;9.926;2023-06-05T11:51:01;21.66;72.59
66871;DHT22;53780;44.998;9.926;2023-06-05T11:54:05;21.39;73.12
66871;DHT22;53780;44.998;9.926;2023-06-05T11:57:10;21.38;74.10
66871;DHT22;53780;44.998;9.926;2023-06-05T12:00:23;21.34;77.14
66871;DHT22;53780;44.998;9.926;2023-06-05T12:03:27;21.37;75.39
66871;DHT22;53780;44.998;9.926;2023-06-05T12:06:32;21.44;76.21
66871;DHT22;53780;44.998;9.926;2023-06-05T12:09:38;21.55;74.60
66871;DHT22;53780;44.998;9.926;2023-06-05T12:12:53;21.59;76.23
66871;DHT22;53780;44.998;9.926;2023-06-05T12:16:00;21.47;74.83
66871;DHT22;53780;44.998;9.926;2023-06-05T12:19:17;21.63;75.70
66871;DHT22;53780;44.998;9.926;2023-06-05T12:22:21;21.56;75.13
66871;DHT22;53780;44.998;9.926;2023-06-05T12:25:26;21.28;75.89
66871;DHT22;53780;44.998;9.926;2023-06-05T12:28:31;21.32;76.52
66871;DHT22;53780;44.998;9.926;2023-06-05T12:31:36;21.26;77.31
66871;DHT22;53780;44.998;9.926;2023-06-05T12:34:44;20.99;77.22
66871;DHT22;53780;44.998;9.926;2023-06-05T12:37:50;20.90;78.01
66871;DHT22;53780;44.998;9.926;2023-06-05T12:40:54;21.07;77.54
66871;DHT22;53780;44.998;9.926;2023-06-05T12:44:02;21.04;73.67
66871;DHT22;53780;44.998;9.926;2023-06-05T12:47:08;20.94;74.32
66871;DHT22;53780;44.998;9.926;2023-06-05T12:50:12;21.21;72.88
66871;DHT22;53780;44.998;9.926;2023-06-05T12:53:16;21.37;72.69
66871;DHT22;53780;44.998;9.926;2023-06-05T12:56:19;21.54;71.62
66871;DHT22;53780;44.998;9.926;2023-06-05T12:59:27;21.62;70.92
66871;DHT22;53780;44.998;9.926;2023-06-05T13:02:31;21.75;71.44
66871;DHT22;53780;44.998;9.926;2023-06-05T13:05:37;21.85;69.13
66871;DHT22;53780;44.998;9.926;2023-06-05T13:08:40;21.99;68.38
66871;DHT22;53780;44.998;9.926;2023-06-05T13:11:45;22.02;68.93
66871;DHT22;53780;44.998;9.926;2023-06-05T13:14:48;22.03;69.34
66871;DHT22;53780;44.998;9.926;2023-06-05T13:17:52;21.97;70.40
66871;DHT22;53780;44.998;9.926;2023-06-05T13:20:56;22.03;69.43
66871;DHT22;53780;44.998;9.926;2023-06-05T13:24:00;22.16;69.39
66871;DHT22;53780;44.998;9.926;2023-06-05T13:27:04;22.22;70.21
66871;DHT22;53780;44.998;9.926;2023-06-05T13:30:09;22.22;70.04
66871;DHT22;53780;44.998;9.926;2023-06-05T13:33:13;22.22;70.65
66871;DHT22;53780;44.998;9.926;2023-06-05T13:36:16;22.25;70.93
66871;DHT22;53780;44.998;9.926;2023-06-05T13:39:20;22.34;69.92
66871;DHT22;53780;44.998;9.926;2023-06-05T13:42:23;22.34;68.39
66871;DHT22;53780;44.998;9.926;2023-06-05T13:45:27;22.43;69.60
66871;DHT22;53780;44.998;9.926;2023-06-05T13:48:31;22.47;69.40
66871;DHT22;53780;44.998;9.926;2023-06-05T13:51:38;22.52;68.98
66871;DHT22;53780;44.998;9.926;2023-06-05T13:54:42;22.61;68.48
66871;DHT22;53780;44.998;9.926;2023-06-05T13:57:46;22.62;68.10
66871;DHT22;53780;44.998;9.926;2023-06-05T14:00:50;22.68;68.59
66871;DHT22;53780;44.998;9.926;2023-06-05T14:03:54;22.68;66.83
66871;DHT22;53780;44.998;9.926;2023-06-05T14:06:58;22.73;66.72
66871;DHT22;53780;44.998;9.926;2023-06-05T14:10:02;22.75;66.58
66871;DHT22;53780;44.998;9.926;2023-06-05T14:13:07;22.79;67.12
66871;DHT22;53780;44.998;9.926;2023-06-05T14:16:11;22.79;67.57
66871;DHT22;53780;44.998;9.926;2023-06-05T14:19:15;22.84;67.40
66871;DHT22;53780;44.998;9.926;2023-06-05T14:22:19;22.78;67.74
66871;DHT22;53780;44.998;9.926;2023-06-05T14:25:23;22.81;66.66
66871;DHT22;53780;44.998;9.926;2023-06-05T14:28:29;22.86;66.74
66871;DHT22;53780;44.998;9.926;2023-06-05T14:31:32;22.86;67.41
66871;DHT22;53780;44.998;9.926;2023-06-05T14:34:36;22.85;67.44
66871;DHT22;53780;44.998;9.926;2023-06-05T14:37:40;22.86;67.15
66871;DHT22;53780;44.998;9.926;2023-06-05T14:40:44;22.85;67.15
66871;DHT22;53780;44.998;9.926;2023-06-05T14:43:47;22.82;66.67
66871;DHT22;53780;44.998;9.926;2023-06-05T14:46:53;22.84;66.94
66871;DHT22;53780;44.998;9.926;2023-06-05T14:50:00;22.88;66.58
66871;DHT22;53780;44.998;9.926;2023-06-05T14:53:05;22.96;66.54
66871;DHT22;53780;44.998;9.926;2023-06-05T14:56:09;23.00;66.49
66871;DHT22;53780;44.998;9.926;2023-06-05T14:59:14;22.99;68.76
66871;DHT22;53780;44.998;9.926;2023-06-05T15:02:19;23.00;68.53
66871;DHT22;53780;44.998;9.926;2023-06-05T15:05:25;22.91;68.28
66871;DHT22;53780;44.998;9.926;2023-06-05T15:08:29;22.85;68.01
66871;DHT22;53780;44.998;9.926;2023-06-05T15:11:33;22.86;67.72
66871;DHT22;53780;44.998;9.926;2023-06-05T15:14:36;22.91;67.38
66871;DHT22;53780;44.998;9.926;2023-06-05T15:17:40;22.91;68.02
66871;DHT22;53780;44.998;9.926;2023-06-05T15:20:44;22.92;66.53
66871;DHT22;53780;44.998;9.926;2023-06-05T15:23:48;22.96;67.20
66871;DHT22;53780;44.998;9.926;2023-06-05T15:26:51;22.96;67.45
66871;DHT22;53780;44.998;9.926;2023-06-05T15:29:55;22.98;67.44
66871;DHT22;53780;44.998;9.926;2023-06-05T15:32:59;23.03;68.37
66871;DHT22;53780;44.998;9.926;2023-06-05T15:36:04;23.06;68.14
66871;DHT22;53780;44.998;9.926;2023-06-05T15:39:08;23.06;66.82
66871;DHT22;53780;44.998;9.926;2023-06-05T15:42:12;23.14;66.19
66871;DHT22;53780;44.998;9.926;2023-06-05T15:45:16;23.12;66.97
66871;DHT22;53780;44.998;9.926;2023-06-05T15:48:21;23.14;66.86
66871;DHT22;53780;44.998;9.926;2023-06-05T15:51:25;23.14;66.56
66871;DHT22;53780;44.998;9.926;2023-06-05T15:54:31;23.13;66.56
66871;DHT22;53780;44.998;9.926;2023-06-05T15:57:36;23.09;66.27
66871;DHT22;53780;44.998;9.926;2023-06-05T16:00:39;23.05;66.75
66871;DHT22;53780;44.998;9.926;2023-06-05T16:03:44;23.03;66.34
66871;DHT22;53780;44.998;9.926;2023-06-05T16:06:47;23.00;66.47
66871;DHT22;53780;44.998;9.926;2023-06-05T16:09:51;23.09;67.01
66871;DHT22;53780;44.998;9.926;2023-06-05T16:12:55;23.06;67.00
66871;DHT22;53780;44.998;9.926;2023-06-05T16:15:58;23.03;67.82
66871;DHT22;53780;44.998;9.926;2023-06-05T16:19:02;22.98;67.72
66871;DHT22;53780;44.998;9.926;2023-06-05T16:22:06;22.91;67.80
66871;DHT22;53780;44.998;9.926;2023-06-05T16:25:10;22.91;67.27
66871;DHT22;53780;44.998;9.926;2023-06-05T16:28:14;22.82;67.87
66871;DHT22;53780;44.998;9.926;2023-06-05T16:31:18;22.79;67.44
66871;DHT22;53780;44.998;9.926;2023-06-05T16:34:22;22.86;67.66
66871;DHT22;53780;44.998;9.926;2023-06-05T16:37:26;22.85;66.70
66871;DHT22;53780;44.998;9.926;2023-06-05T16:40:32;22.82;67.50
66871;DHT22;53780;44.998;9.926;2023-06-05T16:43:36;22.84;67.93
66871;DHT22;53780;44.998;9.926;2023-06-05T16:46:43;22.84;67.66
66871;DHT22;53780;44.998;9.926;2023-06-05T16:49:47;22.84;67.17
66871;DHT22;53780;44.998;9.926;2023-06-05T16:52:51;22.76;68.02
66871;DHT22;53780;44.998;9.926;2023-06-05T16:55:54;22.76;68.39
66871;DHT22;53780;44.998;9.926;2023-06-05T16:58:58;22.78;66.80
66871;DHT22;53780;44.998;9.926;2023-06-05T17:02:02;22.75;66.92
66871;DHT22;53780;44.998;9.926;2023-06-05T17:05:07;22.86;67.13
66871;DHT22;53780;44.998;9.926;2023-06-05T17:08:11;22.79;67.23
66871;DHT22;53780;44.998;9.926;2023-06-05T17:11:16;22.78;67.24
66871;DHT22;53780;44.998;9.926;2023-06-05T17:14:20;22.84;66.74
66871;DHT22;53780;44.998;9.926;2023-06-05T17:17:26;22.65;66.73
66871;DHT22;53780;44.998;9.926;2023-06-05T17:20:29;22.57;67.03
66871;DHT22;53780;44.998;9.926;2023-06-05T17:23:34;22.45;67.52
66871;DHT22;53780;44.998;9.926;2023-06-05T17:26:37;22.34;67.58
66871;DHT22;53780;44.998;9.926;2023-06-05T17:29:42;22.34;68.31
66871;DHT22;53780;44.998;9.926;2023-06-05T17:32:46;22.30;67.72
66871;DHT22;53780;44.998;9.926;2023-06-05T17:35:50;22.27;68.24
66871;DHT22;53780;44.998;9.926;2023-06-05T17:38:53;22.22;68.49
66871;DHT22;53780;44.998;9.926;2023-06-05T17:41:57;22.18;67.82
66871;DHT22;53780;44.998;9.926;2023-06-05T17:45:01;22.10;68.15
66871;DHT22;53780;44.998;9.926;2023-06-05T17:48:08;22.10;69.16
66871;DHT22;53780;44.998;9.926;2023-06-05T17:51:12;21.83;69.27
66871;DHT22;53780;44.998;9.926;2023-06-05T17:54:16;21.76;69.90
66871;DHT22;53780;44.998;9.926;2023-06-05T17:57:20;21.75;70.13
66871;DHT22;53780;44.998;9.926;2023-06-05T18:00:24;21.76;70.22
66871;DHT22;53780;44.998;9.926;2023-06-05T18:03:28;21.83;70.53
66871;DHT22;53780;44.998;9.926;2023-06-05T18:06:32;21.85;70.13
66871;DHT22;53780;44.998;9.926;2023-06-05T18:09:36;21.67;70.83
66871;DHT22;53780;44.998;9.926;2023-06-05T18:12:40;21.62;70.79
66871;DHT22;53780;44.998;9.926;2023-06-05T18:15:44;21.49;71.22
66871;DHT22;53780;44.998;9.926;2023-06-05T18:18:49;21.55;71.73
66871;DHT22;53780;44.998;9.926;2023-06-05T18:21:53;21.39;73.14
66871;DHT22;53780;44.998;9.926;2023-06-05T18:24:58;21.20;73.95
66871;DHT22;53780;44.998;9.926;2023-06-05T18:28:02;21.08;74.57
66871;DHT22;53780;44.998;9.926;2023-06-05T18:31:06;20.87;74.60
66871;DHT22;53780;44.998;9.926;2023-06-05T18:34:11;20.83;74.70
66871;DHT22;53780;44.998;9.926;2023-06-05T18:37:17;20.66;75.28
66871;DHT22;53780;44.998;9.926;2023-06-05T18:40:20;20.52;75.77
66871;DHT22;53780;44.998;9.926;2023-06-05T18:43:25;20.36;76.28
66871;DHT22;53780;44.998;9.926;2023-06-05T18:46:31;20.28;76.40
66871;DHT22;53780;44.998;9.926;2023-06-05T18:49:36;20.18;76.15
66871;DHT22;53780;44.998;9.926;2023-06-05T18:52:40;20.22;76.22
66871;DHT22;53780;44.998;9.926;2023-06-05T18:55:44;20.17;76.12
66871;DHT22;53780;44.998;9.926;2023-06-05T18:58:48;20.11;76.06
66871;DHT22;53780;44.998;9.926;2023-06-05T19:01:52;20.04;76.45
66871;DHT22;53780;44.998;9.926;2023-06-05T19:04:55;19.86;77.23
66871;DHT22;53780;44.998;9.926;2023-06-05T19:08:00;19.79;77.75
66871;DHT22;53780;44.998;9.926;2023-06-05T19:11:03;19.84;77.33
66871;DHT22;53780;44.998;9.926;2023-06-05T19:14:07;19.81;77.67
66871;DHT22;53780;44.998;9.926;2023-06-05T19:17:11;19.89;77.37
66871;DHT22;53780;44.998;9.926;2023-06-05T19:20:16;19.94;77.74
66871;DHT22;53780;44.998;9.926;2023-06-05T19:23:20;19.84;78.16
66871;DHT22;53780;44.998;9.926;2023-06-05T19:26:24;19.77;78.51
66871;DHT22;53780;44.998;9.926;2023-06-05T19:29:29;19.83;78.83
66871;DHT22;53780;44.998;9.926;2023-06-05T19:32:37;19.79;78.94
66871;DHT22;53780;44.998;9.926;2023-06-05T19:35:44;19.80;78.90
66871;DHT22;53780;44.998;9.926;2023-06-05T19:38:48;19.81;78.70
66871;DHT22;53780;44.998;9.926;2023-06-05T19:41:51;19.81;78.48
66871;DHT22;53780;44.998;9.926;2023-06-05T19:44:55;19.84;78.26
66871;DHT22;53780;44.998;9.926;2023-06-05T19:48:01;19.93;77.89